createdAt,value
2018-10-17T00:01:41.335Z,9.60
2018-10-17T00:04:50.002Z,9.57
2018-10-17T00:07:56.717Z,9.52
2018-10-17T00:11:03.654Z,9.50
2018-10-17T00:21:55.905Z,9.14
2018-10-17T00:25:00.926Z,9.12
2018-10-17T00:28:05.893Z,9.17
2018-10-17T00:31:12.766Z,9.19
2018-10-17T00:34:17.976Z,9.23
2018-10-17T00:37:22.962Z,9.24
2018-10-17T00:40:29.653Z,9.23
2018-10-17T00:43:36.279Z,9.23
2018-10-17T00:46:43.383Z,9.20
2018-10-17T00:49:48.354Z,9.26
2018-10-17T00:52:53.416Z,9.19
2018-10-17T00:55:59.994Z,9.18
2018-10-17T00:59:08.253Z,9.06
2018-10-17T01:02:15.182Z,9.08
2018-10-17T01:05:22.155Z,9.10
2018-10-17T01:08:28.882Z,9.03
2018-10-17T01:11:36.618Z,9.03
2018-10-17T01:14:43.336Z,8.97
2018-10-17T01:17:51.973Z,8.96
2018-10-17T01:21:07.361Z,8.98
2018-10-17T01:24:13.919Z,8.90
2018-10-17T01:27:27.077Z,8.92
2018-10-17T01:30:34.160Z,8.95
2018-10-17T01:33:41.286Z,8.95
2018-10-17T01:36:48.286Z,8.91
2018-10-17T01:39:54.861Z,8.88
2018-10-17T01:42:59.895Z,8.89
2018-10-17T01:46:06.986Z,8.87
2018-10-17T01:49:13.237Z,8.86
2018-10-17T01:52:20.214Z,8.79
2018-10-17T01:55:25.219Z,8.74
2018-10-17T01:58:32.021Z,8.73
2018-10-17T02:01:38.786Z,8.73
2018-10-17T02:04:48.045Z,8.72
2018-10-17T02:07:53.037Z,8.68
2018-10-17T02:10:59.677Z,8.69
2018-10-17T02:14:08.601Z,8.68
2018-10-17T02:17:13.715Z,8.65
2018-10-17T02:23:49.953Z,8.63
2018-10-17T02:26:55.147Z,8.59
2018-10-17T02:30:02.284Z,8.61
2018-10-17T02:33:09.111Z,8.60
2018-10-17T02:36:14.195Z,8.66
2018-10-17T02:39:22.272Z,8.59
2018-10-17T02:42:29.233Z,8.59
2018-10-17T02:45:34.227Z,8.57
2018-10-17T02:48:39.209Z,8.56
2018-10-17T02:55:16.285Z,8.48
2018-10-17T02:58:21.218Z,8.50
2018-10-17T03:01:29.783Z,8.48
2018-10-17T03:04:34.790Z,8.42
2018-10-17T03:07:39.788Z,8.41
2018-10-17T03:10:44.762Z,8.42
2018-10-17T03:13:49.738Z,8.42
2018-10-17T03:16:54.849Z,8.41
2018-10-17T03:20:01.555Z,8.39
2018-10-17T03:23:08.299Z,8.36
2018-10-17T03:26:13.239Z,8.31
2018-10-17T03:39:50.880Z,8.17
2018-10-17T03:42:57.542Z,8.21
2018-10-17T03:46:02.514Z,8.19
2018-10-17T03:49:07.801Z,8.19
2018-10-17T03:52:14.619Z,8.18
2018-10-17T03:55:19.792Z,8.18
2018-10-17T03:58:24.684Z,8.18
2018-10-17T04:01:31.931Z,8.18
2018-10-17T04:04:36.898Z,8.18
2018-10-17T04:07:41.995Z,8.18
2018-10-17T04:10:46.981Z,8.18
2018-10-17T04:13:51.988Z,8.18
2018-10-17T04:16:57.048Z,8.16
2018-10-17T04:20:01.999Z,8.15
2018-10-17T04:23:07.033Z,8.15
2018-10-17T04:26:11.960Z,8.15
2018-10-17T04:29:16.942Z,8.12
2018-10-17T04:32:23.593Z,8.08
2018-10-17T04:35:30.645Z,8.05
2018-10-17T04:38:38.669Z,8.05
2018-10-17T04:41:45.303Z,8.04
2018-10-17T04:44:54.044Z,8.01
2018-10-17T04:47:59.138Z,7.99
2018-10-17T04:51:05.966Z,8.01
2018-10-17T04:54:12.928Z,7.97
2018-10-17T04:57:18.098Z,7.97
2018-10-17T05:00:25.176Z,7.92
2018-10-17T05:03:32.260Z,7.90
2018-10-17T05:06:37.448Z,7.92
2018-10-17T05:09:42.555Z,7.88
2018-10-17T05:15:08.944Z,7.82
2018-10-17T05:18:13.973Z,7.80
2018-10-17T05:21:22.481Z,7.77
2018-10-17T05:24:29.322Z,7.80
2018-10-17T05:27:34.381Z,7.77
2018-10-17T05:30:43.135Z,7.70
2018-10-17T05:37:20.517Z,7.70
2018-10-17T05:40:27.490Z,7.62
2018-10-17T05:43:34.303Z,7.69
2018-10-17T05:46:41.387Z,7.70
2018-10-17T05:49:46.451Z,7.73
2018-10-17T05:52:55.637Z,7.75
2018-10-17T05:56:04.514Z,7.69
2018-10-17T05:59:11.692Z,7.76
2018-10-17T06:02:26.176Z,7.76
2018-10-17T06:05:38.666Z,7.82
2018-10-17T06:08:49.906Z,7.85
2018-10-17T06:12:00.709Z,7.87
2018-10-17T06:15:12.356Z,7.93
2018-10-17T06:18:20.350Z,7.98
2018-10-17T06:21:33.270Z,8.02
2018-10-17T06:24:43.233Z,8.06
2018-10-17T06:27:55.123Z,8.13
2018-10-17T06:31:02.377Z,8.19
2018-10-17T06:34:09.406Z,8.23
2018-10-17T06:37:18.104Z,8.33
2018-10-17T06:43:54.142Z,8.46
2018-10-17T06:46:59.173Z,8.50
2018-10-17T06:50:04.886Z,8.59
2018-10-17T06:53:09.977Z,8.74
2018-10-17T06:56:14.988Z,8.87
2018-10-17T06:59:19.955Z,9.01
2018-10-17T07:02:25.075Z,9.20
2018-10-17T07:05:29.909Z,9.34
2018-10-17T07:08:34.949Z,9.50
2018-10-17T07:11:39.884Z,9.65
2018-10-17T07:14:44.863Z,9.81
2018-10-17T07:17:49.817Z,9.95
2018-10-17T07:20:54.881Z,10.08
2018-10-17T07:23:59.845Z,10.20
2018-10-17T07:27:04.855Z,10.30
2018-10-17T07:30:09.971Z,10.41
2018-10-17T07:33:14.960Z,10.53
2018-10-17T07:36:19.980Z,10.67
2018-10-17T07:42:55.315Z,10.97
2018-10-17T07:46:00.277Z,11.19
2018-10-17T07:49:05.489Z,11.38
2018-10-17T07:52:17.895Z,11.57
2018-10-17T07:55:22.881Z,11.74
2018-10-17T07:58:27.868Z,11.97
2018-10-17T08:01:32.810Z,12.26
2018-10-17T08:04:37.733Z,12.53
2018-10-17T08:07:42.678Z,12.71
2018-10-17T08:10:47.627Z,12.93
2018-10-17T08:13:52.612Z,13.07
2018-10-17T08:16:57.478Z,13.31
2018-10-17T08:20:02.446Z,13.58
2018-10-17T08:23:07.381Z,13.81
2018-10-17T08:26:12.294Z,14.04
2018-10-17T08:29:17.233Z,14.33
2018-10-17T08:32:22.160Z,14.65
2018-10-17T08:35:27.185Z,15.04
2018-10-17T08:38:32.084Z,15.29
2018-10-17T08:41:37.258Z,15.26
2018-10-17T08:44:42.235Z,15.30
2018-10-17T08:47:47.306Z,15.41
2018-10-17T08:50:53.678Z,15.65
2018-10-17T08:53:58.640Z,15.91
2018-10-17T08:57:04.019Z,16.15
2018-10-17T09:03:40.366Z,17.10
2018-10-17T09:06:45.381Z,17.28
2018-10-17T09:09:50.364Z,17.35
2018-10-17T09:12:55.491Z,17.55
2018-10-17T09:16:00.548Z,17.69
2018-10-17T09:19:05.767Z,17.94
2018-10-17T09:22:11.147Z,18.23
2018-10-17T09:25:16.081Z,18.40
2018-10-17T09:28:20.797Z,18.57
2018-10-17T09:31:25.925Z,18.81
2018-10-17T09:34:30.861Z,18.98
2018-10-17T09:37:36.197Z,19.33
2018-10-17T09:40:41.275Z,19.49
2018-10-17T09:43:46.290Z,19.32
2018-10-17T09:46:52.098Z,19.21
2018-10-17T09:49:57.031Z,19.34
2018-10-17T09:53:02.021Z,19.47
2018-10-17T09:56:08.364Z,19.66
2018-10-17T09:59:13.297Z,19.67
2018-10-17T10:02:18.314Z,19.73
2018-10-17T10:05:23.223Z,19.83
2018-10-17T10:08:28.161Z,19.87
2018-10-17T10:11:33.084Z,19.86
2018-10-17T10:14:38.074Z,19.88
2018-10-17T10:17:43.423Z,20.05
2018-10-17T10:20:48.465Z,19.98
2018-10-17T10:23:53.404Z,19.91
2018-10-17T10:26:58.362Z,19.99
2018-10-17T10:30:03.412Z,20.03
2018-10-17T10:33:08.361Z,20.20
2018-10-17T10:36:13.384Z,20.27
2018-10-17T10:39:18.278Z,20.36
2018-10-17T10:42:23.297Z,20.47
2018-10-17T10:45:28.534Z,20.69
2018-10-17T10:48:33.426Z,20.83
2018-10-17T10:51:38.406Z,20.99
2018-10-17T10:54:55.857Z,21.05
2018-10-17T10:58:00.866Z,21.15
2018-10-17T11:01:05.912Z,21.28
2018-10-17T11:04:10.918Z,21.37
2018-10-17T11:10:47.341Z,21.60
2018-10-17T11:13:52.592Z,21.71
2018-10-17T11:16:57.579Z,21.76
2018-10-17T11:20:03.742Z,22.00
2018-10-17T11:23:09.179Z,22.20
2018-10-17T11:26:14.183Z,22.41
2018-10-17T11:29:19.220Z,22.46
2018-10-17T11:32:24.602Z,22.68
2018-10-17T11:35:31.430Z,22.81
2018-10-17T11:38:36.428Z,22.84
2018-10-17T11:41:41.615Z,22.81
2018-10-17T11:44:46.534Z,23.04
2018-10-17T11:47:51.633Z,23.20
2018-10-17T11:50:58.769Z,23.20
2018-10-17T11:54:10.395Z,23.37
2018-10-17T11:57:29.024Z,23.40
2018-10-17T12:00:34.010Z,23.29
2018-10-17T12:03:39.059Z,23.08
2018-10-17T12:06:44.007Z,23.03
2018-10-17T12:09:48.976Z,22.93
2018-10-17T12:15:02.789Z,23.03
2018-10-17T12:18:08.235Z,23.17
2018-10-17T12:21:13.277Z,23.17
2018-10-17T12:24:18.201Z,23.40
2018-10-17T12:27:24.563Z,23.49
2018-10-17T12:30:29.718Z,23.63
2018-10-17T12:33:34.724Z,23.87
2018-10-17T12:36:41.678Z,23.83
2018-10-17T12:39:46.788Z,23.74
2018-10-17T12:42:51.670Z,23.79
2018-10-17T12:45:56.925Z,23.93
2018-10-17T12:49:01.932Z,24.15
2018-10-17T12:52:06.909Z,24.12
2018-10-17T12:55:11.877Z,23.99
2018-10-17T12:58:16.860Z,23.87
2018-10-17T13:01:21.841Z,23.67
2018-10-17T13:04:26.954Z,23.60
2018-10-17T13:07:31.949Z,23.55
2018-10-17T13:10:37.143Z,23.41
2018-10-17T13:13:42.150Z,23.20
2018-10-17T13:16:47.126Z,23.09
2018-10-17T13:19:52.276Z,23.02
2018-10-17T13:22:57.263Z,23.13
2018-10-17T13:26:02.298Z,23.26
2018-10-17T13:29:07.452Z,23.23
2018-10-17T13:32:14.195Z,23.25
2018-10-17T13:35:19.380Z,23.28
2018-10-17T13:38:24.347Z,23.44
2018-10-17T13:41:29.373Z,23.38
2018-10-17T13:44:34.347Z,23.53
2018-10-17T13:47:40.133Z,23.52
2018-10-17T13:50:45.113Z,23.45
2018-10-17T13:53:50.155Z,23.65
2018-10-17T13:56:55.155Z,23.75
2018-10-17T14:00:00.117Z,23.84
2018-10-17T14:03:05.470Z,23.79
2018-10-17T14:06:10.567Z,23.70
2018-10-17T14:09:15.569Z,23.80
2018-10-17T14:12:20.658Z,23.78
2018-10-17T14:15:25.589Z,23.83
2018-10-17T14:18:57.547Z,23.94
2018-10-17T14:22:02.611Z,23.72
2018-10-17T14:25:07.770Z,23.70
2018-10-17T14:28:12.982Z,23.46
2018-10-17T14:31:17.989Z,23.41
2018-10-17T14:34:23.018Z,23.54
2018-10-17T14:37:28.076Z,23.37
2018-10-17T14:40:33.051Z,23.24
2018-10-17T14:43:38.054Z,23.20
2018-10-17T14:46:43.114Z,23.29
2018-10-17T14:49:48.163Z,23.12
2018-10-17T14:52:53.201Z,23.09
2018-10-17T14:55:58.262Z,22.83
2018-10-17T14:59:03.342Z,22.61
2018-10-17T15:02:08.311Z,22.46
2018-10-17T15:05:13.493Z,22.28
2018-10-17T15:08:18.478Z,22.16
2018-10-17T15:11:23.723Z,22.02
2018-10-17T15:14:30.266Z,21.90
2018-10-17T15:17:35.483Z,21.79
2018-10-17T15:28:15.445Z,21.46
2018-10-17T15:31:21.236Z,21.39
2018-10-17T15:34:26.213Z,21.32
2018-10-17T15:37:31.231Z,21.23
2018-10-17T15:40:36.299Z,21.03
2018-10-17T15:43:43.293Z,20.82
2018-10-17T15:46:48.362Z,20.63
2018-10-17T15:49:55.482Z,20.45
2018-10-17T15:53:00.571Z,20.27
2018-10-17T15:56:07.288Z,20.09
2018-10-17T15:59:12.590Z,19.90
2018-10-17T16:02:21.274Z,19.72
2018-10-17T16:05:26.351Z,19.48
2018-10-17T16:08:31.347Z,19.32
2018-10-17T16:11:36.607Z,19.14
2018-10-17T16:14:41.595Z,18.94
2018-10-17T16:17:46.634Z,18.77
2018-10-17T16:20:51.755Z,18.57
2018-10-17T16:23:56.992Z,18.41
2018-10-17T16:27:02.000Z,18.21
2018-10-17T16:30:09.549Z,18.03
2018-10-17T16:33:14.647Z,17.83
2018-10-17T16:36:20.017Z,17.69
2018-10-17T16:39:25.103Z,17.51
2018-10-17T16:42:30.211Z,17.35
2018-10-17T16:45:35.264Z,17.24
2018-10-17T16:48:40.326Z,17.12
2018-10-17T16:51:45.329Z,16.99
2018-10-17T16:54:52.048Z,16.87
2018-10-17T16:57:57.321Z,16.72
2018-10-17T17:01:02.329Z,16.58
2018-10-17T17:04:07.343Z,16.46
2018-10-17T17:07:12.390Z,16.37
2018-10-17T17:10:18.467Z,16.26
2018-10-17T17:13:23.710Z,16.14
2018-10-17T17:16:28.832Z,16.05
2018-10-17T17:19:33.801Z,15.95
2018-10-17T17:22:39.437Z,15.85
2018-10-17T17:25:44.452Z,15.71
2018-10-17T17:28:49.852Z,15.61
2018-10-17T17:31:55.140Z,15.53
2018-10-17T17:35:00.305Z,15.43
2018-10-17T17:38:08.952Z,15.32
2018-10-17T17:41:20.976Z,15.24
2018-10-17T17:44:26.137Z,15.13
2018-10-17T17:47:31.097Z,15.03
2018-10-17T17:50:36.383Z,14.92
2018-10-17T17:53:41.588Z,14.85
2018-10-17T17:56:46.710Z,14.75
2018-10-17T17:59:51.876Z,14.70
2018-10-17T18:02:56.959Z,14.58
2018-10-17T18:06:02.040Z,14.46
2018-10-17T18:09:08.522Z,14.42
2018-10-17T18:12:13.720Z,14.31
2018-10-17T18:15:19.173Z,14.24
2018-10-17T18:18:24.355Z,14.22
2018-10-17T18:21:29.483Z,14.18
2018-10-17T18:24:36.064Z,14.12
2018-10-17T18:27:42.658Z,14.02
2018-10-17T18:30:47.591Z,13.93
2018-10-17T18:33:52.621Z,13.86
2018-10-17T18:36:57.608Z,13.92
2018-10-17T18:40:02.877Z,13.73
2018-10-17T18:43:07.905Z,13.62
2018-10-17T18:46:12.999Z,13.60
2018-10-17T18:49:18.220Z,13.56
2018-10-17T18:52:25.522Z,13.51
2018-10-17T18:55:30.590Z,13.43
2018-10-17T18:58:37.097Z,13.40
2018-10-17T19:01:44.494Z,13.28
2018-10-17T19:04:49.528Z,13.20
2018-10-17T19:07:54.487Z,13.15
2018-10-17T19:10:59.507Z,13.09
2018-10-17T19:17:36.525Z,12.93
2018-10-17T19:20:44.717Z,12.87
2018-10-17T19:23:49.721Z,12.84
2018-10-17T19:26:54.733Z,12.79
2018-10-17T19:29:59.752Z,12.74
2018-10-17T19:33:06.540Z,12.71
2018-10-17T19:36:11.615Z,12.62
2018-10-17T19:39:16.692Z,12.60
2018-10-17T19:42:21.821Z,12.55
2018-10-17T19:45:26.977Z,12.51
2018-10-17T19:48:32.015Z,12.40
2018-10-17T19:51:36.991Z,12.37
2018-10-17T19:54:41.983Z,12.30
2018-10-17T19:57:48.521Z,12.30
2018-10-17T20:00:53.520Z,12.28
2018-10-17T20:03:58.478Z,12.23
2018-10-17T20:07:04.039Z,12.17
2018-10-17T20:10:10.914Z,12.12
2018-10-17T20:13:15.867Z,12.10
2018-10-17T20:16:22.682Z,12.07
2018-10-17T20:19:27.651Z,12.05
2018-10-17T20:22:42.989Z,11.99
2018-10-17T20:25:48.085Z,11.96
2018-10-17T20:28:54.788Z,11.97
2018-10-17T20:31:59.911Z,11.88
2018-10-17T20:35:05.494Z,11.85
2018-10-17T20:38:12.594Z,11.80
2018-10-17T20:41:19.525Z,11.75
2018-10-17T20:44:28.300Z,11.69
2018-10-17T20:47:33.282Z,11.65
2018-10-17T20:50:39.988Z,11.59
2018-10-17T20:53:45.133Z,11.55
2018-10-17T20:56:50.219Z,11.55
2018-10-17T21:00:02.889Z,11.50
2018-10-17T21:03:09.904Z,11.45
2018-10-17T21:06:16.483Z,11.38
2018-10-17T21:09:23.494Z,11.32
2018-10-17T21:15:10.694Z,11.17
2018-10-17T21:18:17.373Z,11.12
2018-10-17T21:21:24.114Z,11.12
2018-10-17T21:24:30.041Z,11.06
2018-10-17T21:27:36.720Z,11.07
2018-10-17T21:30:41.703Z,11.04
2018-10-17T21:33:48.523Z,11.01
2018-10-17T21:36:53.575Z,11.00
2018-10-17T21:40:03.113Z,10.98
2018-10-17T21:43:09.982Z,10.90
2018-10-17T21:46:15.150Z,10.86
2018-10-17T21:49:20.234Z,10.81
2018-10-17T21:52:26.950Z,10.79
2018-10-17T21:55:31.937Z,10.74
2018-10-17T21:58:36.925Z,10.74
2018-10-17T22:01:41.879Z,10.72
2018-10-17T22:04:46.842Z,10.67
2018-10-17T22:07:51.999Z,10.71
2018-10-17T22:10:56.964Z,10.69
2018-10-17T22:14:03.816Z,10.66
2018-10-17T22:17:08.730Z,10.60
2018-10-17T22:20:13.835Z,10.60
2018-10-17T22:23:20.722Z,10.56
2018-10-17T22:26:27.806Z,10.56
2018-10-17T22:29:34.657Z,10.53
2018-10-17T22:32:39.651Z,10.55
2018-10-17T22:35:44.669Z,10.52
2018-10-17T22:38:49.650Z,10.47
2018-10-17T22:41:54.633Z,10.44
2018-10-17T22:45:01.471Z,10.43
2018-10-17T22:48:06.505Z,10.38
2018-10-17T22:51:11.483Z,10.35
2018-10-17T22:54:17.974Z,10.32
2018-10-17T22:57:24.612Z,10.29
2018-10-17T23:00:33.672Z,10.29
2018-10-17T23:03:40.926Z,10.27
2018-10-17T23:06:45.914Z,10.24
2018-10-17T23:09:52.438Z,10.22
2018-10-17T23:12:57.431Z,10.17
2018-10-17T23:16:04.078Z,10.16
2018-10-17T23:19:11.523Z,10.13
2018-10-17T23:22:18.039Z,10.14
2018-10-17T23:25:24.698Z,10.01
2018-10-17T23:28:31.827Z,10.05
2018-10-17T23:31:38.519Z,10.01
2018-10-17T23:34:43.544Z,9.96
2018-10-17T23:37:50.131Z,9.96
2018-10-17T23:40:56.731Z,9.95
2018-10-17T23:44:05.491Z,9.94
2018-10-17T23:47:12.175Z,9.94
2018-10-17T23:50:18.792Z,9.92
2018-10-17T23:53:25.505Z,9.93
2018-10-17T23:56:30.523Z,9.93
2018-10-17T23:59:37.213Z,9.93
